EPSC

Szczecin-Goleniów "Solidarność" Airport

Goleniow, Poland
METAR EPSC 271130Z 18012KT 9999 -TSRA FEW026CB SCT043 22/12 Q1022
Observed Flight Rules
May-27 @ 11:30 UTC (32 minutes ago) Visual Flight Rules
Wind Visibility Clouds Conditions
180° at 12 knots 10,000+ meters
  • Few at 2,600' AGL
  • Scattered at 4,300' AGL
  • Light Thunderstorm
  • Light Rain
Temperatures Readings
Current 22°C / 72°F
Dewpoint 12°C / 54°F
Humidity 53%
Altimeter 30.18" Hg
Pressure 1022 hPa
Elevation 47
METAR EPSC 271130Z 18012KT 9999 -TSRA FEW026CB SCT043 22/12 Q1022
Observed Flight Rules
May-27 @ 11:30 UTC
(32 minutes ago)
VFR
Wind Visibility
180° at 12 knots 10,000+ meters
Clouds
  • Few at 2,600' AGL
  • Scattered at 4,300' AGL
Conditions
  • Light Thunderstorm
  • Light Rain
Temperature Dewpoint
22°C / 72°F 12°C / 54°F
Humidity Altimeter Pressure
53% 30.18" Hg 1022 hPa